createdAt,value
2019-01-18T00:00:57.083Z,44.26
2019-01-18T00:03:24.990Z,44.23
2019-01-18T00:05:52.703Z,44.24
2019-01-18T00:08:20.786Z,44.20
2019-01-18T00:10:48.775Z,44.13
2019-01-18T00:13:16.862Z,44.06
2019-01-18T00:15:45.030Z,44.17
2019-01-18T00:18:12.866Z,44.17
2019-01-18T00:20:40.690Z,44.21
2019-01-18T00:23:09.014Z,44.19
2019-01-18T00:25:37.390Z,44.15
2019-01-18T00:28:05.357Z,44.18
2019-01-18T00:30:33.718Z,44.08
2019-01-18T00:33:01.466Z,44.07
2019-01-18T00:35:29.290Z,44.06
2019-01-18T00:37:57.123Z,44.08
2019-01-18T00:40:24.850Z,44.19
2019-01-18T00:42:53.030Z,44.25
2019-01-18T00:45:21.187Z,44.21
2019-01-18T00:47:49.545Z,44.19
2019-01-18T00:50:17.274Z,44.17
2019-01-18T00:52:45.014Z,44.17
2019-01-18T00:55:13.075Z,44.11
2019-01-18T00:57:40.835Z,44.09
2019-01-18T01:00:13.450Z,44.07
2019-01-18T01:02:41.712Z,44.15
2019-01-18T01:05:10.166Z,44.19
2019-01-18T01:07:38.511Z,44.16
2019-01-18T01:10:06.827Z,44.20
2019-01-18T01:12:34.795Z,44.22
2019-01-18T01:15:03.032Z,44.19
2019-01-18T01:17:31.006Z,44.24
2019-01-18T01:19:59.023Z,44.05
2019-01-18T01:22:27.015Z,44.30
2019-01-18T01:24:55.059Z,44.31
2019-01-18T01:27:23.111Z,44.30
2019-01-18T01:29:51.390Z,44.30
2019-01-18T01:32:19.770Z,44.29
2019-01-18T01:34:48.027Z,44.25
2019-01-18T01:37:15.791Z,44.22
2019-01-18T01:39:43.628Z,44.14
2019-01-18T01:42:11.743Z,44.25
2019-01-18T01:44:39.766Z,44.29
2019-01-18T01:47:07.556Z,44.27
2019-01-18T01:49:35.667Z,44.20
2019-01-18T01:52:03.859Z,44.19
2019-01-18T01:54:33.274Z,44.21
2019-01-18T01:57:01.339Z,44.12
2019-01-18T01:59:29.471Z,44.17
2019-01-18T02:01:57.273Z,44.17
2019-01-18T02:04:25.046Z,44.15
2019-01-18T02:06:53.039Z,44.08
2019-01-18T02:09:21.288Z,43.98
2019-01-18T02:11:49.850Z,44.00
2019-01-18T02:14:18.173Z,43.99
2019-01-18T02:16:46.503Z,44.00
2019-01-18T02:19:14.915Z,44.01
2019-01-18T02:21:42.974Z,43.99
2019-01-18T02:24:11.046Z,44.01
2019-01-18T02:26:38.838Z,44.08
2019-01-18T02:29:07.199Z,44.12
2019-01-18T02:31:35.270Z,44.15
2019-01-18T02:34:03.332Z,44.17
2019-01-18T02:36:32.083Z,44.20
2019-01-18T02:39:00.109Z,44.19
2019-01-18T02:41:28.563Z,44.16
2019-01-18T02:43:56.355Z,44.18
2019-01-18T02:46:24.130Z,44.07
2019-01-18T02:48:52.184Z,44.13
2019-01-18T02:51:20.038Z,44.14
2019-01-18T02:53:48.692Z,44.19
2019-01-18T02:56:17.134Z,44.13
2019-01-18T02:58:44.860Z,44.08
2019-01-18T03:01:13.267Z,44.13
2019-01-18T03:03:40.985Z,44.13
2019-01-18T03:06:08.715Z,44.20
2019-01-18T03:08:36.887Z,44.24
2019-01-18T03:11:04.650Z,44.22
2019-01-18T03:13:32.494Z,44.15
2019-01-18T03:16:00.283Z,44.20
2019-01-18T03:18:28.318Z,44.19
2019-01-18T03:20:56.407Z,44.16
2019-01-18T03:23:24.530Z,44.12
2019-01-18T03:25:52.539Z,44.13
2019-01-18T03:28:20.641Z,44.17
2019-01-18T03:30:48.394Z,44.16
2019-01-18T03:33:16.659Z,44.08
2019-01-18T03:35:44.690Z,43.94
2019-01-18T03:38:13.287Z,43.93
2019-01-18T03:40:42.064Z,43.92
2019-01-18T03:43:10.198Z,43.94
2019-01-18T03:45:38.247Z,43.93
2019-01-18T03:48:06.580Z,43.93
2019-01-18T03:50:34.694Z,43.90
2019-01-18T03:53:02.763Z,43.91
2019-01-18T03:55:31.258Z,43.93
2019-01-18T03:57:59.307Z,43.96
2019-01-18T04:00:28.177Z,44.00
2019-01-18T04:02:56.628Z,44.02
2019-01-18T04:05:24.391Z,44.01
2019-01-18T04:07:52.429Z,44.01
2019-01-18T04:10:20.195Z,44.01
2019-01-18T04:12:48.545Z,44.01
2019-01-18T04:15:17.059Z,43.99
2019-01-18T04:17:45.439Z,44.04
2019-01-18T04:20:13.827Z,44.04
2019-01-18T04:22:41.898Z,44.03
2019-01-18T04:25:11.276Z,43.97
2019-01-18T04:27:39.242Z,44.04
2019-01-18T04:30:08.844Z,44.02
2019-01-18T04:32:36.959Z,44.00
2019-01-18T04:35:05.140Z,43.98
2019-01-18T04:37:32.905Z,44.00
2019-01-18T04:40:00.867Z,43.88
2019-01-18T04:42:28.829Z,43.55
2019-01-18T04:44:56.604Z,43.69
2019-01-18T04:47:24.575Z,43.71
2019-01-18T04:49:52.879Z,43.39
2019-01-18T04:52:20.870Z,43.78
2019-01-18T04:54:48.716Z,43.70
2019-01-18T04:57:16.722Z,43.83
2019-01-18T04:59:45.298Z,43.91
2019-01-18T05:02:13.275Z,43.97
2019-01-18T05:04:41.573Z,43.97
2019-01-18T05:07:10.039Z,43.96
2019-01-18T05:09:37.874Z,43.90
2019-01-18T05:12:05.943Z,43.89
2019-01-18T05:14:33.698Z,43.88
2019-01-18T05:17:01.704Z,43.87
2019-01-18T05:19:29.873Z,43.84
2019-01-18T05:21:58.478Z,43.82
2019-01-18T05:24:26.222Z,43.84
2019-01-18T05:26:54.034Z,43.85
2019-01-18T05:29:22.194Z,43.84
2019-01-18T05:31:50.917Z,43.84
2019-01-18T05:34:18.672Z,43.57
2019-01-18T05:36:46.683Z,43.38
2019-01-18T05:39:14.787Z,41.75
2019-01-18T05:41:42.947Z,41.21
2019-01-18T05:44:11.189Z,40.31
2019-01-18T05:46:39.810Z,39.66
2019-01-18T05:49:08.295Z,39.41
2019-01-18T05:51:36.383Z,37.92
2019-01-18T05:54:04.164Z,37.59
2019-01-18T05:56:31.965Z,37.56
2019-01-18T05:58:59.706Z,37.33
2019-01-18T06:01:28.260Z,37.44
2019-01-18T06:03:56.615Z,37.54
2019-01-18T06:06:25.129Z,37.67
2019-01-18T06:08:52.990Z,37.65
2019-01-18T06:11:21.351Z,37.89
2019-01-18T06:13:49.159Z,37.51
2019-01-18T06:16:17.206Z,37.47
2019-01-18T06:18:45.663Z,35.95
2019-01-18T06:21:13.752Z,36.39
2019-01-18T06:23:42.115Z,36.64
2019-01-18T06:26:10.231Z,36.54
2019-01-18T06:28:37.975Z,36.19
2019-01-18T06:31:06.435Z,36.28
2019-01-18T06:33:34.862Z,36.11
2019-01-18T06:36:03.314Z,36.40
2019-01-18T06:38:32.210Z,35.96
2019-01-18T06:41:09.113Z,35.88
2019-01-18T06:43:36.879Z,35.04
2019-01-18T06:46:04.910Z,35.15
2019-01-18T06:48:32.915Z,35.40
2019-01-18T06:51:00.638Z,34.28
2019-01-18T06:53:29.106Z,35.14
2019-01-18T06:55:57.128Z,35.43
2019-01-18T06:58:24.863Z,36.34
2019-01-18T07:00:52.654Z,36.36
2019-01-18T07:03:20.667Z,37.27
2019-01-18T07:05:48.386Z,38.21
2019-01-18T07:08:16.147Z,38.73
2019-01-18T07:10:44.394Z,39.27
2019-01-18T07:13:12.690Z,39.67
2019-01-18T07:15:40.999Z,39.93
2019-01-18T07:18:08.735Z,39.96
2019-01-18T07:20:36.704Z,40.16
2019-01-18T07:23:04.458Z,40.38
2019-01-18T07:25:32.450Z,40.20
2019-01-18T07:28:00.810Z,40.16
2019-01-18T07:30:33.171Z,40.15
2019-01-18T07:33:01.550Z,40.23
2019-01-18T07:35:29.521Z,40.47
2019-01-18T07:37:57.478Z,40.63
2019-01-18T07:40:26.141Z,40.50
2019-01-18T07:42:54.079Z,40.60
2019-01-18T07:45:23.174Z,40.61
2019-01-18T07:47:50.954Z,40.56
2019-01-18T07:50:20.154Z,40.68
2019-01-18T07:52:48.751Z,40.85
2019-01-18T07:55:16.770Z,40.76
2019-01-18T07:57:45.155Z,40.79
2019-01-18T08:00:14.391Z,40.81
2019-01-18T08:02:42.747Z,40.84
2019-01-18T08:05:10.483Z,40.83
2019-01-18T08:07:38.321Z,40.83
2019-01-18T08:10:08.087Z,40.84
2019-01-18T08:12:35.906Z,40.82
2019-01-18T08:15:03.864Z,40.75
2019-01-18T08:17:31.986Z,40.87
2019-01-18T08:20:00.083Z,40.90
2019-01-18T08:22:28.491Z,40.89
2019-01-18T08:24:56.479Z,40.94
2019-01-18T08:27:24.691Z,40.95
2019-01-18T08:29:52.447Z,41.04
2019-01-18T08:32:20.430Z,41.05
2019-01-18T08:34:48.159Z,41.16
2019-01-18T08:37:16.019Z,41.12
2019-01-18T08:39:44.127Z,41.14
2019-01-18T08:42:11.912Z,41.12
2019-01-18T08:44:40.294Z,41.13
2019-01-18T08:47:08.338Z,41.17
2019-01-18T08:49:36.422Z,41.25
2019-01-18T08:52:04.174Z,41.37
2019-01-18T08:54:32.259Z,41.37
2019-01-18T08:57:00.051Z,41.49
2019-01-18T08:59:27.802Z,41.58
2019-01-18T09:01:55.898Z,41.70
2019-01-18T09:04:23.639Z,41.58
2019-01-18T09:06:51.896Z,41.64
2019-01-18T09:09:20.214Z,41.74
2019-01-18T09:11:48.227Z,41.58
2019-01-18T09:14:19.537Z,41.62
2019-01-18T09:16:46.674Z,41.52
2019-01-18T09:19:14.723Z,41.59
2019-01-18T09:21:42.486Z,41.63
2019-01-18T09:24:10.707Z,41.57
2019-01-18T09:26:39.022Z,41.70
2019-01-18T09:29:07.087Z,41.65
2019-01-18T09:31:34.923Z,41.68
2019-01-18T09:34:02.954Z,41.71
2019-01-18T09:36:30.796Z,41.67
2019-01-18T09:38:59.114Z,41.69
2019-01-18T09:41:27.171Z,41.69
2019-01-18T09:43:55.242Z,41.63
2019-01-18T09:46:23.211Z,41.71
2019-01-18T09:48:51.262Z,41.66
2019-01-18T09:51:20.054Z,41.63
2019-01-18T09:53:48.127Z,41.58
2019-01-18T09:56:16.011Z,41.64
2019-01-18T09:58:44.449Z,41.66
2019-01-18T10:01:12.198Z,41.67
2019-01-18T10:03:39.983Z,41.61
2019-01-18T10:06:07.705Z,41.72
2019-01-18T10:08:35.794Z,41.69
2019-01-18T10:11:04.144Z,41.70
2019-01-18T10:13:32.067Z,41.71
2019-01-18T10:16:00.191Z,41.74
2019-01-18T10:18:28.535Z,41.72
2019-01-18T10:20:56.733Z,41.78
2019-01-18T10:23:24.794Z,41.77
2019-01-18T10:25:53.264Z,41.67
2019-01-18T10:28:21.346Z,41.58
2019-01-18T10:30:50.047Z,41.71
2019-01-18T10:33:18.386Z,41.84
2019-01-18T10:35:46.414Z,41.89
2019-01-18T10:38:14.435Z,41.65
2019-01-18T10:40:42.280Z,41.70
2019-01-18T10:43:10.056Z,41.82
2019-01-18T10:45:39.048Z,41.89
2019-01-18T10:48:07.161Z,41.85
2019-01-18T10:50:34.894Z,41.86
2019-01-18T10:53:02.726Z,41.96
2019-01-18T10:55:31.081Z,41.38
2019-01-18T10:57:59.710Z,42.19
2019-01-18T11:00:28.471Z,42.14
2019-01-18T11:02:56.602Z,42.08
2019-01-18T11:05:24.821Z,42.00
2019-01-18T11:07:52.554Z,42.09
2019-01-18T11:10:20.282Z,42.15
2019-01-18T11:12:48.295Z,42.26
2019-01-18T11:15:17.471Z,42.38
2019-01-18T11:17:46.279Z,42.46
2019-01-18T11:20:15.610Z,42.56
2019-01-18T11:22:43.636Z,42.53
2019-01-18T11:25:11.858Z,42.72
2019-01-18T11:27:39.925Z,42.78
2019-01-18T11:30:09.382Z,42.47
2019-01-18T11:32:37.980Z,42.81
2019-01-18T11:35:06.792Z,42.78
2019-01-18T11:37:34.591Z,42.45
2019-01-18T11:40:03.674Z,42.78
2019-01-18T11:42:31.415Z,42.68
2019-01-18T11:44:59.143Z,42.79
2019-01-18T11:47:28.376Z,42.78
2019-01-18T11:49:57.062Z,42.75
2019-01-18T11:52:25.423Z,42.71
2019-01-18T11:54:53.181Z,42.75
2019-01-18T11:57:21.251Z,42.68
2019-01-18T11:59:50.581Z,42.57
2019-01-18T12:02:22.032Z,42.58
2019-01-18T12:04:48.557Z,42.73
2019-01-18T12:07:16.516Z,42.75
2019-01-18T12:09:44.610Z,42.77
2019-01-18T12:12:12.366Z,42.76
2019-01-18T12:14:40.362Z,42.78
2019-01-18T12:17:09.011Z,42.81
2019-01-18T12:19:37.027Z,42.80
2019-01-18T12:22:04.746Z,42.75
2019-01-18T12:24:33.131Z,42.79
2019-01-18T12:27:01.426Z,42.79
2019-01-18T12:29:29.784Z,42.83
2019-01-18T12:31:57.598Z,42.86
2019-01-18T12:34:25.335Z,42.84
2019-01-18T12:36:58.875Z,42.88
2019-01-18T12:39:23.347Z,42.84
2019-01-18T12:41:51.376Z,42.84
2019-01-18T12:44:19.142Z,42.80
2019-01-18T12:46:46.918Z,42.84
2019-01-18T12:49:14.643Z,42.89
2019-01-18T12:51:42.374Z,42.84
2019-01-18T12:54:10.118Z,42.88
2019-01-18T12:56:37.926Z,42.77
2019-01-18T12:59:05.939Z,42.69
2019-01-18T13:01:33.995Z,42.77
2019-01-18T13:04:01.976Z,42.69
2019-01-18T13:06:30.303Z,42.81
2019-01-18T13:08:58.335Z,42.81
2019-01-18T13:11:26.090Z,42.64
2019-01-18T13:13:55.110Z,42.91
2019-01-18T13:16:42.451Z,42.83
2019-01-18T13:19:12.555Z,42.79
2019-01-18T13:21:41.839Z,42.91
2019-01-18T13:24:09.935Z,42.89
2019-01-18T13:26:37.818Z,42.77
2019-01-18T13:29:05.561Z,42.55
2019-01-18T13:31:33.610Z,42.84
2019-01-18T13:34:03.156Z,42.80
2019-01-18T13:36:31.065Z,42.83
2019-01-18T13:38:59.178Z,42.80
2019-01-18T13:41:27.249Z,42.74
2019-01-18T13:43:55.515Z,42.83
2019-01-18T13:46:23.255Z,42.82
2019-01-18T13:48:51.018Z,42.82
2019-01-18T13:51:19.019Z,42.78
2019-01-18T13:53:47.243Z,42.87
2019-01-18T13:56:15.191Z,42.76
2019-01-18T13:58:43.172Z,42.50
2019-01-18T14:01:10.983Z,42.76
2019-01-18T14:03:38.793Z,42.70
2019-01-18T14:06:06.843Z,42.73
2019-01-18T14:08:35.118Z,42.76
2019-01-18T14:11:04.518Z,42.87
2019-01-18T14:13:32.571Z,42.86
2019-01-18T14:16:00.661Z,42.89
2019-01-18T14:18:28.720Z,42.89
2019-01-18T14:20:56.772Z,42.89
2019-01-18T14:23:25.190Z,42.88
2019-01-18T14:25:53.595Z,42.90
2019-01-18T14:28:21.944Z,42.89
2019-01-18T14:30:50.415Z,42.92
2019-01-18T14:33:18.703Z,42.89
2019-01-18T14:35:46.762Z,42.90
2019-01-18T14:38:15.045Z,42.90
2019-01-18T14:40:42.780Z,42.84
2019-01-18T14:43:10.562Z,42.85
2019-01-18T14:45:39.359Z,42.90
2019-01-18T14:48:07.435Z,42.87
2019-01-18T14:50:35.152Z,42.86
2019-01-18T14:53:03.227Z,42.75
2019-01-18T14:55:31.653Z,42.72
2019-01-18T14:57:59.386Z,42.70
2019-01-18T15:00:29.178Z,42.66
2019-01-18T15:03:02.317Z,42.59
2019-01-18T15:05:27.107Z,42.70
2019-01-18T15:07:55.092Z,42.62
2019-01-18T15:10:23.308Z,42.70
2019-01-18T15:12:52.180Z,42.67
2019-01-18T15:15:20.635Z,42.74
2019-01-18T15:17:48.935Z,42.62
2019-01-18T15:20:18.315Z,42.63
2019-01-18T15:22:46.396Z,42.70
2019-01-18T15:25:15.230Z,42.67
2019-01-18T15:27:42.991Z,42.56
2019-01-18T15:30:12.046Z,42.69
2019-01-18T15:32:39.815Z,42.66
2019-01-18T15:35:08.679Z,42.63
2019-01-18T15:37:36.983Z,42.74
2019-01-18T15:40:05.675Z,42.56
2019-01-18T15:42:33.767Z,42.64
2019-01-18T15:45:02.853Z,42.67
2019-01-18T15:47:30.718Z,42.63
2019-01-18T15:49:58.498Z,42.58
2019-01-18T15:52:26.525Z,42.67
2019-01-18T15:54:54.546Z,42.57
2019-01-18T15:57:22.606Z,42.58
2019-01-18T15:59:50.430Z,42.47
2019-01-18T16:02:18.414Z,42.52
2019-01-18T16:04:46.614Z,42.64
2019-01-18T16:07:14.590Z,42.82
2019-01-18T16:09:42.870Z,42.86
2019-01-18T16:12:10.659Z,42.80
2019-01-18T16:14:38.373Z,42.65
2019-01-18T16:17:11.182Z,42.76
2019-01-18T16:19:39.231Z,42.85
2019-01-18T16:22:07.266Z,42.84
2019-01-18T16:24:35.481Z,42.82
2019-01-18T16:27:03.462Z,42.78
2019-01-18T16:29:31.459Z,42.77
2019-01-18T16:31:59.550Z,42.69
2019-01-18T16:34:27.856Z,42.70
2019-01-18T16:36:55.606Z,42.67
2019-01-18T16:39:23.658Z,42.65
2019-01-18T16:41:51.717Z,42.61
2019-01-18T16:44:20.503Z,42.60
2019-01-18T16:46:48.596Z,42.63
2019-01-18T16:49:16.458Z,42.49
2019-01-18T16:51:44.875Z,42.57
2019-01-18T16:54:13.375Z,42.59
2019-01-18T16:56:41.352Z,42.62
2019-01-18T16:59:09.298Z,42.41
2019-01-18T17:01:37.526Z,42.54
2019-01-18T17:04:05.807Z,42.53
2019-01-18T17:06:33.785Z,42.40
2019-01-18T17:09:01.813Z,42.54
2019-01-18T17:11:30.043Z,42.54
2019-01-18T17:13:57.771Z,42.46
2019-01-18T17:16:25.725Z,42.49
2019-01-18T17:18:53.782Z,42.57
2019-01-18T17:21:21.826Z,42.51
2019-01-18T17:23:49.531Z,42.15
2019-01-18T17:26:17.489Z,42.20
2019-01-18T17:28:45.818Z,42.52
2019-01-18T17:31:13.776Z,42.35
2019-01-18T17:33:41.524Z,42.50
2019-01-18T17:36:16.554Z,42.27
2019-01-18T17:39:01.308Z,41.44
2019-01-18T17:41:38.779Z,41.97
2019-01-18T17:44:13.067Z,42.42
2019-01-18T17:46:48.283Z,42.47
2019-01-18T17:49:41.414Z,42.46
2019-01-18T17:52:16.285Z,42.51
2019-01-18T17:54:52.283Z,42.28
2019-01-18T17:57:48.660Z,42.35
2019-01-18T18:00:35.678Z,42.10
2019-01-18T18:03:08.546Z,41.84
2019-01-18T18:05:55.578Z,42.40
2019-01-18T18:08:51.879Z,42.50
2019-01-18T18:11:58.035Z,42.52
2019-01-18T18:14:43.078Z,42.60
2019-01-18T18:17:23.202Z,42.81
2019-01-18T18:20:04.191Z,42.99
2019-01-18T18:22:57.638Z,43.33
2019-01-18T18:25:53.864Z,43.33
2019-01-18T18:28:53.476Z,43.56
2019-01-18T18:31:32.875Z,43.61
2019-01-18T18:34:18.889Z,43.64
2019-01-18T18:36:59.276Z,44.03
2019-01-18T18:39:37.555Z,44.27
2019-01-18T18:42:33.931Z,44.20
2019-01-18T18:45:11.308Z,44.12
2019-01-18T18:47:56.410Z,44.19
2019-01-18T18:50:38.063Z,44.43
2019-01-18T18:53:43.326Z,45.54
2019-01-18T18:56:27.647Z,45.58
2019-01-18T18:59:02.158Z,46.72
2019-01-18T19:01:55.550Z,46.49
2019-01-18T19:04:30.726Z,46.19
2019-01-18T19:07:30.795Z,45.81
2019-01-18T19:10:01.759Z,45.52
2019-01-18T19:12:47.863Z,45.22
2019-01-18T19:15:47.848Z,45.50
2019-01-18T19:18:36.221Z,45.70
2019-01-18T19:21:38.683Z,45.66
2019-01-18T19:24:28.111Z,45.70
2019-01-18T19:27:09.418Z,45.74
2019-01-18T19:29:55.905Z,45.83
2019-01-18T19:32:29.096Z,45.76
2019-01-18T19:35:00.044Z,45.67
2019-01-18T19:37:47.353Z,45.64
2019-01-18T19:40:18.915Z,45.57
2019-01-18T19:43:17.944Z,45.41
2019-01-18T19:46:03.652Z,45.35
2019-01-18T19:48:35.407Z,45.27
2019-01-18T19:51:09.526Z,45.18
2019-01-18T19:53:56.009Z,45.10
2019-01-18T19:56:53.106Z,45.96
2019-01-18T19:59:40.239Z,46.01
2019-01-18T20:02:26.422Z,45.56
2019-01-18T20:05:19.567Z,45.21
2019-01-18T20:07:59.707Z,45.10
2019-01-18T20:10:52.996Z,45.12
2019-01-18T20:13:40.131Z,44.79
2019-01-18T20:16:16.890Z,44.71
2019-01-18T20:18:51.763Z,44.59
2019-01-18T20:21:23.779Z,44.32
2019-01-18T20:24:02.008Z,44.42
2019-01-18T20:26:49.591Z,44.49
2019-01-18T20:29:35.820Z,44.91
2019-01-18T20:32:08.467Z,44.80
2019-01-18T20:35:07.731Z,44.74
2019-01-18T20:37:57.859Z,44.38
2019-01-18T20:40:44.175Z,44.84
2019-01-18T20:43:34.819Z,44.12
2019-01-18T20:46:14.093Z,44.47
2019-01-18T20:48:52.987Z,44.53
2019-01-18T20:51:27.931Z,44.51
2019-01-18T20:54:13.363Z,44.42
2019-01-18T20:57:00.477Z,44.46
2019-01-18T20:59:36.743Z,44.36
2019-01-18T21:02:36.251Z,44.36
2019-01-18T21:05:25.495Z,44.41
2019-01-18T21:08:12.359Z,44.36
2019-01-18T21:10:57.953Z,44.11
2019-01-18T21:13:36.874Z,44.07
2019-01-18T21:16:10.044Z,44.01
2019-01-18T21:18:43.960Z,43.90
2019-01-18T21:21:33.813Z,43.90
2019-01-18T21:24:08.071Z,43.86
2019-01-18T21:27:06.005Z,43.94
2019-01-18T21:29:54.203Z,43.98
2019-01-18T21:32:53.866Z,44.23
2019-01-18T21:35:50.132Z,44.65
2019-01-18T21:38:31.264Z,44.57
2019-01-18T21:41:17.619Z,44.66
2019-01-18T21:44:10.819Z,44.48
2019-01-18T21:46:53.797Z,44.48
2019-01-18T21:49:41.036Z,44.28
2019-01-18T21:52:27.024Z,44.24
2019-01-18T21:55:19.996Z,44.03
2019-01-18T21:58:07.082Z,43.97
2019-01-18T22:00:52.384Z,43.86
2019-01-18T22:03:39.226Z,44.07
2019-01-18T22:06:10.798Z,43.82
2019-01-18T22:08:43.943Z,44.12
2019-01-18T22:11:16.765Z,44.10
2019-01-18T22:14:10.190Z,44.05
2019-01-18T22:16:46.679Z,44.22
2019-01-18T22:19:37.071Z,44.23
2019-01-18T22:22:08.739Z,44.24
2019-01-18T22:25:14.184Z,44.21
2019-01-18T22:27:54.199Z,44.24
2019-01-18T22:30:47.259Z,44.15
2019-01-18T22:33:26.475Z,44.25
2019-01-18T22:36:02.042Z,44.19
2019-01-18T22:38:55.399Z,44.16
2019-01-18T22:41:30.892Z,44.19
2019-01-18T22:44:08.867Z,44.12
2019-01-18T22:46:48.223Z,44.16
2019-01-18T22:49:35.267Z,44.23
2019-01-18T22:52:15.771Z,44.20
2019-01-18T22:55:03.057Z,44.25
2019-01-18T22:57:33.350Z,44.27
2019-01-18T23:00:40.982Z,44.27
2019-01-18T23:03:22.527Z,44.29
2019-01-18T23:06:07.116Z,44.16
2019-01-18T23:08:41.922Z,44.30
2019-01-18T23:11:34.930Z,44.17
2019-01-18T23:14:28.329Z,43.90
2019-01-18T23:17:05.080Z,43.95
2019-01-18T23:19:58.691Z,44.02
2019-01-18T23:22:40.577Z,43.78
2019-01-18T23:25:30.410Z,44.22
2019-01-18T23:28:08.600Z,43.93
2019-01-18T23:30:39.139Z,43.96
2019-01-18T23:33:29.495Z,43.84
2019-01-18T23:36:03.637Z,43.96
2019-01-18T23:38:46.037Z,43.87
2019-01-18T23:41:19.727Z,43.91
2019-01-18T23:43:54.176Z,43.89
2019-01-18T23:46:42.116Z,44.03
2019-01-18T23:49:13.044Z,44.05
2019-01-18T23:51:59.323Z,43.90
2019-01-18T23:54:45.299Z,44.11
2019-01-18T23:57:16.909Z,44.16
2019-01-18T23:59:47.804Z,43.94
